sensor_id;sensor_type;location;lat;lon;timestamp;P1;durP1;ratioP1;P2;durP2;ratioP2
45254;SDS011;30989;52.078;21.014;2023-04-10T00:01:38;16.33;;;7.47;;
45254;SDS011;30989;52.078;21.014;2023-04-10T00:04:04;20.58;;;8.32;;
45254;SDS011;30989;52.078;21.014;2023-04-10T00:06:30;23.00;;;12.95;;
45254;SDS011;30989;52.078;21.014;2023-04-10T00:08:56;16.60;;;8.50;;
45254;SDS011;30989;52.078;21.014;2023-04-10T00:11:23;18.50;;;9.10;;
45254;SDS011;30989;52.078;21.014;2023-04-10T00:13:49;18.25;;;8.68;;
45254;SDS011;30989;52.078;21.014;2023-04-10T00:16:15;19.80;;;9.02;;
45254;SDS011;30989;52.078;21.014;2023-04-10T00:18:40;15.27;;;8.75;;
45254;SDS011;30989;52.078;21.014;2023-04-10T00:21:06;16.98;;;8.40;;
45254;SDS011;30989;52.078;21.014;2023-04-10T00:23:31;17.77;;;9.15;;
45254;SDS011;30989;52.078;21.014;2023-04-10T00:25:58;18.65;;;9.68;;
45254;SDS011;30989;52.078;21.014;2023-04-10T00:28:25;17.40;;;9.18;;
45254;SDS011;30989;52.078;21.014;2023-04-10T00:30:50;19.90;;;9.27;;
45254;SDS011;30989;52.078;21.014;2023-04-10T00:33:16;17.75;;;9.60;;
45254;SDS011;30989;52.078;21.014;2023-04-10T00:35:41;17.40;;;8.55;;
45254;SDS011;30989;52.078;21.014;2023-04-10T00:38:07;17.10;;;8.38;;
45254;SDS011;30989;52.078;21.014;2023-04-10T00:40:32;20.45;;;10.18;;
45254;SDS011;30989;52.078;21.014;2023-04-10T00:42:59;19.65;;;10.00;;
45254;SDS011;30989;52.078;21.014;2023-04-10T00:45:24;19.05;;;9.15;;
45254;SDS011;30989;52.078;21.014;2023-04-10T00:47:50;17.40;;;8.85;;
45254;SDS011;30989;52.078;21.014;2023-04-10T00:50:16;16.50;;;8.63;;
45254;SDS011;30989;52.078;21.014;2023-04-10T00:52:41;22.33;;;9.23;;
45254;SDS011;30989;52.078;21.014;2023-04-10T00:55:07;18.60;;;9.32;;
45254;SDS011;30989;52.078;21.014;2023-04-10T00:57:33;18.92;;;9.57;;
45254;SDS011;30989;52.078;21.014;2023-04-10T00:59:59;27.73;;;12.73;;
45254;SDS011;30989;52.078;21.014;2023-04-10T01:02:25;22.77;;;10.52;;
45254;SDS011;30989;52.078;21.014;2023-04-10T01:04:51;23.48;;;11.20;;
45254;SDS011;30989;52.078;21.014;2023-04-10T01:13:13;24.85;;;11.77;;
45254;SDS011;30989;52.078;21.014;2023-04-10T01:16:04;18.65;;;10.63;;
45254;SDS011;30989;52.078;21.014;2023-04-10T01:21:08;19.35;;;10.95;;
45254;SDS011;30989;52.078;21.014;2023-04-10T01:26:38;21.60;;;10.70;;
45254;SDS011;30989;52.078;21.014;2023-04-10T01:29:25;24.75;;;11.90;;
45254;SDS011;30989;52.078;21.014;2023-04-10T01:32:00;23.85;;;12.27;;
45254;SDS011;30989;52.078;21.014;2023-04-10T01:34:34;22.52;;;12.93;;
45254;SDS011;30989;52.078;21.014;2023-04-10T01:37:07;24.40;;;12.55;;
45254;SDS011;30989;52.078;21.014;2023-04-10T01:39:40;24.67;;;13.48;;
45254;SDS011;30989;52.078;21.014;2023-04-10T01:42:08;26.40;;;11.55;;
45254;SDS011;30989;52.078;21.014;2023-04-10T01:44:39;26.52;;;13.05;;
45254;SDS011;30989;52.078;21.014;2023-04-10T01:47:07;23.30;;;12.75;;
45254;SDS011;30989;52.078;21.014;2023-04-10T01:49:33;22.63;;;11.93;;
45254;SDS011;30989;52.078;21.014;2023-04-10T01:52:02;22.95;;;12.32;;
45254;SDS011;30989;52.078;21.014;2023-04-10T01:54:31;25.67;;;12.38;;
45254;SDS011;30989;52.078;21.014;2023-04-10T01:56:58;22.35;;;12.93;;
45254;SDS011;30989;52.078;21.014;2023-04-10T01:59:26;22.42;;;12.02;;
45254;SDS011;30989;52.078;21.014;2023-04-10T02:01:58;23.70;;;12.05;;
45254;SDS011;30989;52.078;21.014;2023-04-10T02:04:25;22.65;;;11.45;;
45254;SDS011;30989;52.078;21.014;2023-04-10T02:15:22;26.38;;;12.60;;
45254;SDS011;30989;52.078;21.014;2023-04-10T02:17:50;20.88;;;11.75;;
45254;SDS011;30989;52.078;21.014;2023-04-10T02:20:17;21.80;;;11.23;;
45254;SDS011;30989;52.078;21.014;2023-04-10T02:22:44;22.45;;;12.30;;
45254;SDS011;30989;52.078;21.014;2023-04-10T02:25:11;23.27;;;12.07;;
45254;SDS011;30989;52.078;21.014;2023-04-10T02:27:37;21.70;;;11.13;;
45254;SDS011;30989;52.078;21.014;2023-04-10T02:30:03;19.88;;;10.95;;
45254;SDS011;30989;52.078;21.014;2023-04-10T02:32:32;21.15;;;12.27;;
45254;SDS011;30989;52.078;21.014;2023-04-10T02:34:58;21.08;;;11.57;;
45254;SDS011;30989;52.078;21.014;2023-04-10T02:37:23;17.00;;;10.10;;
45254;SDS011;30989;52.078;21.014;2023-04-10T02:39:51;18.52;;;11.25;;
45254;SDS011;30989;52.078;21.014;2023-04-10T02:42:20;21.80;;;11.30;;
45254;SDS011;30989;52.078;21.014;2023-04-10T02:44:46;20.30;;;10.63;;
45254;SDS011;30989;52.078;21.014;2023-04-10T02:47:12;22.65;;;11.25;;
45254;SDS011;30989;52.078;21.014;2023-04-10T02:49:43;23.92;;;11.43;;
45254;SDS011;30989;52.078;21.014;2023-04-10T02:52:12;21.88;;;10.52;;
45254;SDS011;30989;52.078;21.014;2023-04-10T02:54:38;21.45;;;11.88;;
45254;SDS011;30989;52.078;21.014;2023-04-10T02:57:04;21.20;;;12.02;;
45254;SDS011;30989;52.078;21.014;2023-04-10T02:59:31;19.25;;;10.40;;
45254;SDS011;30989;52.078;21.014;2023-04-10T03:01:57;20.27;;;10.50;;
45254;SDS011;30989;52.078;21.014;2023-04-10T03:04:23;17.35;;;10.07;;
45254;SDS011;30989;52.078;21.014;2023-04-10T03:06:49;15.93;;;10.02;;
45254;SDS011;30989;52.078;21.014;2023-04-10T03:09:14;19.15;;;11.73;;
45254;SDS011;30989;52.078;21.014;2023-04-10T03:11:40;17.55;;;11.23;;
45254;SDS011;30989;52.078;21.014;2023-04-10T03:14:05;18.65;;;10.48;;
45254;SDS011;30989;52.078;21.014;2023-04-10T03:16:31;17.92;;;10.52;;
45254;SDS011;30989;52.078;21.014;2023-04-10T03:18:57;24.00;;;13.32;;
45254;SDS011;30989;52.078;21.014;2023-04-10T03:21:23;24.38;;;12.25;;
45254;SDS011;30989;52.078;21.014;2023-04-10T03:23:49;18.85;;;11.05;;
45254;SDS011;30989;52.078;21.014;2023-04-10T03:26:15;21.80;;;11.35;;
45254;SDS011;30989;52.078;21.014;2023-04-10T03:28:40;20.80;;;11.30;;
45254;SDS011;30989;52.078;21.014;2023-04-10T03:31:08;17.83;;;10.10;;
45254;SDS011;30989;52.078;21.014;2023-04-10T03:33:37;18.58;;;10.85;;
45254;SDS011;30989;52.078;21.014;2023-04-10T03:36:03;22.63;;;11.63;;
45254;SDS011;30989;52.078;21.014;2023-04-10T03:38:31;19.05;;;10.25;;
45254;SDS011;30989;52.078;21.014;2023-04-10T03:40:56;19.13;;;11.55;;
45254;SDS011;30989;52.078;21.014;2023-04-10T03:43:24;19.50;;;10.80;;
45254;SDS011;30989;52.078;21.014;2023-04-10T03:45:50;20.60;;;10.10;;
45254;SDS011;30989;52.078;21.014;2023-04-10T03:48:15;18.42;;;9.80;;
45254;SDS011;30989;52.078;21.014;2023-04-10T03:50:44;20.48;;;10.45;;
45254;SDS011;30989;52.078;21.014;2023-04-10T03:53:10;19.10;;;11.52;;
45254;SDS011;30989;52.078;21.014;2023-04-10T03:55:36;19.23;;;11.32;;
45254;SDS011;30989;52.078;21.014;2023-04-10T03:58:03;29.17;;;11.65;;
45254;SDS011;30989;52.078;21.014;2023-04-10T04:00:30;22.27;;;10.32;;
45254;SDS011;30989;52.078;21.014;2023-04-10T04:03:09;19.88;;;10.70;;
45254;SDS011;30989;52.078;21.014;2023-04-10T04:05:51;17.33;;;9.93;;
45254;SDS011;30989;52.078;21.014;2023-04-10T04:08:54;17.83;;;10.73;;
45254;SDS011;30989;52.078;21.014;2023-04-10T04:11:36;17.75;;;10.27;;
45254;SDS011;30989;52.078;21.014;2023-04-10T04:14:21;19.95;;;11.73;;
45254;SDS011;30989;52.078;21.014;2023-04-10T04:16:57;15.48;;;9.90;;
45254;SDS011;30989;52.078;21.014;2023-04-10T04:19:23;21.00;;;11.38;;
45254;SDS011;30989;52.078;21.014;2023-04-10T04:22:05;17.73;;;10.77;;
45254;SDS011;30989;52.078;21.014;2023-04-10T04:24:49;16.85;;;9.73;;
45254;SDS011;30989;52.078;21.014;2023-04-10T04:27:21;18.08;;;10.65;;
45254;SDS011;30989;52.078;21.014;2023-04-10T04:30:05;20.42;;;9.35;;
45254;SDS011;30989;52.078;21.014;2023-04-10T04:32:45;16.90;;;10.48;;
45254;SDS011;30989;52.078;21.014;2023-04-10T04:35:29;18.30;;;10.68;;
45254;SDS011;30989;52.078;21.014;2023-04-10T04:38:11;21.02;;;10.55;;
45254;SDS011;30989;52.078;21.014;2023-04-10T04:41:06;19.08;;;11.10;;
45254;SDS011;30989;52.078;21.014;2023-04-10T04:44:01;18.27;;;10.05;;
45254;SDS011;30989;52.078;21.014;2023-04-10T04:46:55;22.60;;;10.30;;
45254;SDS011;30989;52.078;21.014;2023-04-10T04:49:39;16.23;;;9.50;;
45254;SDS011;30989;52.078;21.014;2023-04-10T04:52:23;17.58;;;9.98;;
45254;SDS011;30989;52.078;21.014;2023-04-10T04:55:08;17.30;;;10.18;;
45254;SDS011;30989;52.078;21.014;2023-04-10T04:58:03;18.73;;;10.43;;
45254;SDS011;30989;52.078;21.014;2023-04-10T05:00:51;18.52;;;9.85;;
45254;SDS011;30989;52.078;21.014;2023-04-10T05:03:28;14.85;;;9.43;;
45254;SDS011;30989;52.078;21.014;2023-04-10T05:06:19;14.48;;;9.02;;
45254;SDS011;30989;52.078;21.014;2023-04-10T05:09:05;14.70;;;9.25;;
45254;SDS011;30989;52.078;21.014;2023-04-10T05:14:41;15.80;;;8.48;;
45254;SDS011;30989;52.078;21.014;2023-04-10T05:17:30;18.50;;;9.93;;
45254;SDS011;30989;52.078;21.014;2023-04-10T05:20:06;19.95;;;9.70;;
45254;SDS011;30989;52.078;21.014;2023-04-10T05:22:50;16.95;;;8.88;;
45254;SDS011;30989;52.078;21.014;2023-04-10T05:28:18;13.73;;;8.43;;
45254;SDS011;30989;52.078;21.014;2023-04-10T05:30:59;17.73;;;10.07;;
45254;SDS011;30989;52.078;21.014;2023-04-10T05:33:47;17.83;;;9.32;;
45254;SDS011;30989;52.078;21.014;2023-04-10T05:36:38;14.77;;;9.23;;
45254;SDS011;30989;52.078;21.014;2023-04-10T05:39:26;15.85;;;9.13;;
45254;SDS011;30989;52.078;21.014;2023-04-10T05:41:57;13.80;;;8.05;;
45254;SDS011;30989;52.078;21.014;2023-04-10T05:44:58;13.85;;;9.02;;
45254;SDS011;30989;52.078;21.014;2023-04-10T05:47:34;15.95;;;9.20;;
45254;SDS011;30989;52.078;21.014;2023-04-10T05:50:18;17.83;;;8.88;;
45254;SDS011;30989;52.078;21.014;2023-04-10T05:52:52;18.55;;;10.23;;
45254;SDS011;30989;52.078;21.014;2023-04-10T05:55:40;14.65;;;8.82;;
45254;SDS011;30989;52.078;21.014;2023-04-10T05:58:31;16.85;;;9.93;;
45254;SDS011;30989;52.078;21.014;2023-04-10T06:01:26;16.52;;;8.30;;
45254;SDS011;30989;52.078;21.014;2023-04-10T06:03:58;15.55;;;8.77;;
45254;SDS011;30989;52.078;21.014;2023-04-10T06:06:24;14.90;;;8.05;;
45254;SDS011;30989;52.078;21.014;2023-04-10T06:08:51;26.05;;;13.52;;
45254;SDS011;30989;52.078;21.014;2023-04-10T06:11:17;15.68;;;8.80;;
45254;SDS011;30989;52.078;21.014;2023-04-10T06:13:46;16.38;;;8.77;;
45254;SDS011;30989;52.078;21.014;2023-04-10T06:16:12;12.95;;;7.88;;
45254;SDS011;30989;52.078;21.014;2023-04-10T06:18:39;13.48;;;7.80;;
45254;SDS011;30989;52.078;21.014;2023-04-10T06:21:05;13.15;;;7.25;;
45254;SDS011;30989;52.078;21.014;2023-04-10T06:23:31;12.23;;;7.10;;
45254;SDS011;30989;52.078;21.014;2023-04-10T06:25:56;13.70;;;7.20;;
45254;SDS011;30989;52.078;21.014;2023-04-10T06:28:22;13.82;;;7.05;;
45254;SDS011;30989;52.078;21.014;2023-04-10T06:30:53;14.75;;;7.93;;
45254;SDS011;30989;52.078;21.014;2023-04-10T06:33:21;13.77;;;7.57;;
45254;SDS011;30989;52.078;21.014;2023-04-10T06:35:47;13.07;;;7.65;;
45254;SDS011;30989;52.078;21.014;2023-04-10T06:38:13;12.68;;;7.28;;
45254;SDS011;30989;52.078;21.014;2023-04-10T06:40:39;12.30;;;6.57;;
45254;SDS011;30989;52.078;21.014;2023-04-10T06:43:08;13.48;;;7.60;;
45254;SDS011;30989;52.078;21.014;2023-04-10T06:45:36;12.75;;;7.70;;
45254;SDS011;30989;52.078;21.014;2023-04-10T06:48:02;14.02;;;8.10;;
45254;SDS011;30989;52.078;21.014;2023-04-10T06:50:28;14.23;;;7.15;;
45254;SDS011;30989;52.078;21.014;2023-04-10T06:52:54;11.75;;;7.47;;
45254;SDS011;30989;52.078;21.014;2023-04-10T06:55:20;12.02;;;7.47;;
45254;SDS011;30989;52.078;21.014;2023-04-10T06:57:46;12.88;;;6.97;;
45254;SDS011;30989;52.078;21.014;2023-04-10T07:00:11;13.82;;;7.43;;
45254;SDS011;30989;52.078;21.014;2023-04-10T07:02:37;14.82;;;7.32;;
45254;SDS011;30989;52.078;21.014;2023-04-10T07:05:02;9.80;;;5.43;;
45254;SDS011;30989;52.078;21.014;2023-04-10T07:07:28;11.48;;;5.55;;
45254;SDS011;30989;52.078;21.014;2023-04-10T07:09:54;14.50;;;6.15;;
45254;SDS011;30989;52.078;21.014;2023-04-10T07:12:19;12.48;;;4.28;;
45254;SDS011;30989;52.078;21.014;2023-04-10T07:14:45;16.38;;;5.32;;
45254;SDS011;30989;52.078;21.014;2023-04-10T07:17:10;7.38;;;3.75;;
45254;SDS011;30989;52.078;21.014;2023-04-10T07:19:36;8.80;;;3.97;;
45254;SDS011;30989;52.078;21.014;2023-04-10T07:22:02;8.27;;;4.00;;
45254;SDS011;30989;52.078;21.014;2023-04-10T07:24:28;9.30;;;4.00;;
45254;SDS011;30989;52.078;21.014;2023-04-10T07:26:54;8.10;;;3.95;;
45254;SDS011;30989;52.078;21.014;2023-04-10T07:29:21;11.68;;;3.83;;
45254;SDS011;30989;52.078;21.014;2023-04-10T07:31:46;10.35;;;4.90;;
45254;SDS011;30989;52.078;21.014;2023-04-10T07:34:12;8.88;;;4.93;;
45254;SDS011;30989;52.078;21.014;2023-04-10T07:36:37;8.23;;;4.50;;
45254;SDS011;30989;52.078;21.014;2023-04-10T07:39:03;8.93;;;5.18;;
45254;SDS011;30989;52.078;21.014;2023-04-10T07:41:28;9.98;;;4.80;;
45254;SDS011;30989;52.078;21.014;2023-04-10T07:43:54;10.32;;;5.35;;
45254;SDS011;30989;52.078;21.014;2023-04-10T07:46:19;8.27;;;4.38;;
45254;SDS011;30989;52.078;21.014;2023-04-10T07:48:45;8.32;;;3.97;;
45254;SDS011;30989;52.078;21.014;2023-04-10T07:51:11;6.43;;;3.83;;
45254;SDS011;30989;52.078;21.014;2023-04-10T07:53:38;8.90;;;4.38;;
45254;SDS011;30989;52.078;21.014;2023-04-10T07:56:03;6.90;;;3.83;;
45254;SDS011;30989;52.078;21.014;2023-04-10T07:58:29;8.02;;;3.30;;
45254;SDS011;30989;52.078;21.014;2023-04-10T08:00:56;6.13;;;2.80;;
45254;SDS011;30989;52.078;21.014;2023-04-10T08:03:21;6.07;;;2.85;;
45254;SDS011;30989;52.078;21.014;2023-04-10T08:05:47;6.70;;;3.17;;
45254;SDS011;30989;52.078;21.014;2023-04-10T08:08:14;7.32;;;3.20;;
45254;SDS011;30989;52.078;21.014;2023-04-10T08:10:40;7.03;;;3.20;;
45254;SDS011;30989;52.078;21.014;2023-04-10T08:13:05;5.65;;;3.10;;
45254;SDS011;30989;52.078;21.014;2023-04-10T08:15:31;6.03;;;3.28;;
45254;SDS011;30989;52.078;21.014;2023-04-10T08:17:56;9.70;;;3.47;;
45254;SDS011;30989;52.078;21.014;2023-04-10T08:20:22;6.38;;;3.33;;
45254;SDS011;30989;52.078;21.014;2023-04-10T08:22:48;6.65;;;3.15;;
45254;SDS011;30989;52.078;21.014;2023-04-10T08:25:13;7.30;;;3.78;;
45254;SDS011;30989;52.078;21.014;2023-04-10T08:27:39;8.98;;;4.00;;
45254;SDS011;30989;52.078;21.014;2023-04-10T08:30:05;8.95;;;3.85;;
45254;SDS011;30989;52.078;21.014;2023-04-10T08:32:31;6.50;;;2.97;;
45254;SDS011;30989;52.078;21.014;2023-04-10T08:34:56;5.05;;;2.60;;
45254;SDS011;30989;52.078;21.014;2023-04-10T08:37:22;7.63;;;3.47;;
45254;SDS011;30989;52.078;21.014;2023-04-10T08:39:48;9.60;;;3.10;;
45254;SDS011;30989;52.078;21.014;2023-04-10T08:42:13;5.68;;;3.22;;
45254;SDS011;30989;52.078;21.014;2023-04-10T08:44:39;6.95;;;3.20;;
45254;SDS011;30989;52.078;21.014;2023-04-10T08:47:05;4.47;;;2.63;;
45254;SDS011;30989;52.078;21.014;2023-04-10T08:52:21;6.45;;;3.35;;
45254;SDS011;30989;52.078;21.014;2023-04-10T08:54:55;9.57;;;3.92;;
45254;SDS011;30989;52.078;21.014;2023-04-10T08:57:22;6.10;;;3.13;;
45254;SDS011;30989;52.078;21.014;2023-04-10T08:59:50;7.57;;;3.85;;
45254;SDS011;30989;52.078;21.014;2023-04-10T09:02:16;6.20;;;3.70;;
45254;SDS011;30989;52.078;21.014;2023-04-10T09:04:44;7.13;;;3.42;;
45254;SDS011;30989;52.078;21.014;2023-04-10T09:07:13;6.13;;;3.00;;
45254;SDS011;30989;52.078;21.014;2023-04-10T09:09:38;8.88;;;3.03;;
45254;SDS011;30989;52.078;21.014;2023-04-10T09:12:05;6.47;;;3.38;;
45254;SDS011;30989;52.078;21.014;2023-04-10T09:14:31;10.30;;;4.15;;
45254;SDS011;30989;52.078;21.014;2023-04-10T09:19:54;7.03;;;3.55;;
45254;SDS011;30989;52.078;21.014;2023-04-10T09:22:33;9.07;;;3.35;;
45254;SDS011;30989;52.078;21.014;2023-04-10T09:25:00;6.13;;;2.90;;
45254;SDS011;30989;52.078;21.014;2023-04-10T09:27:31;6.03;;;3.22;;
45254;SDS011;30989;52.078;21.014;2023-04-10T09:29:59;5.28;;;3.17;;
45254;SDS011;30989;52.078;21.014;2023-04-10T09:32:44;9.82;;;3.95;;
45254;SDS011;30989;52.078;21.014;2023-04-10T09:35:14;5.43;;;2.70;;
45254;SDS011;30989;52.078;21.014;2023-04-10T09:37:40;4.85;;;2.30;;
45254;SDS011;30989;52.078;21.014;2023-04-10T09:40:21;4.75;;;1.70;;
45254;SDS011;30989;52.078;21.014;2023-04-10T09:42:51;3.63;;;1.50;;
45254;SDS011;30989;52.078;21.014;2023-04-10T09:45:18;5.00;;;1.90;;
45254;SDS011;30989;52.078;21.014;2023-04-10T09:48:04;9.23;;;2.42;;
45254;SDS011;30989;52.078;21.014;2023-04-10T09:50:37;4.57;;;1.73;;
45254;SDS011;30989;52.078;21.014;2023-04-10T09:53:04;6.75;;;2.22;;
45254;SDS011;30989;52.078;21.014;2023-04-10T09:55:31;3.63;;;1.80;;
45254;SDS011;30989;52.078;21.014;2023-04-10T09:58:00;5.05;;;2.53;;
45254;SDS011;30989;52.078;21.014;2023-04-10T10:00:27;3.75;;;2.05;;
45254;SDS011;30989;52.078;21.014;2023-04-10T10:02:53;8.57;;;2.08;;
45254;SDS011;30989;52.078;21.014;2023-04-10T10:05:21;4.05;;;2.17;;
45254;SDS011;30989;52.078;21.014;2023-04-10T10:07:52;7.18;;;2.70;;
45254;SDS011;30989;52.078;21.014;2023-04-10T10:10:18;5.18;;;2.08;;
45254;SDS011;30989;52.078;21.014;2023-04-10T10:12:44;5.82;;;2.33;;
45254;SDS011;30989;52.078;21.014;2023-04-10T10:15:27;4.18;;;2.55;;
45254;SDS011;30989;52.078;21.014;2023-04-10T10:20:45;4.28;;;2.03;;
45254;SDS011;30989;52.078;21.014;2023-04-10T10:23:11;5.45;;;2.00;;
45254;SDS011;30989;52.078;21.014;2023-04-10T10:25:39;11.90;;;2.03;;
45254;SDS011;30989;52.078;21.014;2023-04-10T10:28:05;6.13;;;2.38;;
45254;SDS011;30989;52.078;21.014;2023-04-10T10:30:32;6.95;;;2.08;;
45254;SDS011;30989;52.078;21.014;2023-04-10T10:33:01;6.20;;;2.30;;
45254;SDS011;30989;52.078;21.014;2023-04-10T10:35:31;5.78;;;2.60;;
45254;SDS011;30989;52.078;21.014;2023-04-10T10:37:58;6.15;;;2.20;;
45254;SDS011;30989;52.078;21.014;2023-04-10T10:40:32;8.30;;;2.40;;
45254;SDS011;30989;52.078;21.014;2023-04-10T10:43:26;3.85;;;2.10;;
45254;SDS011;30989;52.078;21.014;2023-04-10T10:46:03;5.63;;;1.75;;
45254;SDS011;30989;52.078;21.014;2023-04-10T10:48:31;10.60;;;5.75;;
45254;SDS011;30989;52.078;21.014;2023-04-10T10:51:00;6.78;;;2.70;;
45254;SDS011;30989;52.078;21.014;2023-04-10T10:55:57;4.68;;;1.90;;
45254;SDS011;30989;52.078;21.014;2023-04-10T11:01:18;4.55;;;2.00;;
45254;SDS011;30989;52.078;21.014;2023-04-10T11:03:45;5.72;;;2.30;;
45254;SDS011;30989;52.078;21.014;2023-04-10T11:06:15;5.50;;;2.42;;
45254;SDS011;30989;52.078;21.014;2023-04-10T11:16:22;8.07;;;2.13;;
45254;SDS011;30989;52.078;21.014;2023-04-10T11:19:09;4.07;;;2.00;;
45254;SDS011;30989;52.078;21.014;2023-04-10T11:21:58;3.67;;;2.53;;
45254;SDS011;30989;52.078;21.014;2023-04-10T11:24:52;4.75;;;2.30;;
45254;SDS011;30989;52.078;21.014;2023-04-10T11:27:37;7.13;;;2.55;;
45254;SDS011;30989;52.078;21.014;2023-04-10T11:30:50;4.53;;;2.35;;
45254;SDS011;30989;52.078;21.014;2023-04-10T11:32:54;4.85;;;2.35;;
45254;SDS011;30989;52.078;21.014;2023-04-10T11:35:20;6.07;;;2.15;;
45254;SDS011;30989;52.078;21.014;2023-04-10T11:37:46;4.28;;;1.80;;
45254;SDS011;30989;52.078;21.014;2023-04-10T11:40:12;4.82;;;2.40;;
45254;SDS011;30989;52.078;21.014;2023-04-10T11:42:37;5.40;;;1.92;;
45254;SDS011;30989;52.078;21.014;2023-04-10T11:47:51;5.82;;;2.35;;
45254;SDS011;30989;52.078;21.014;2023-04-10T11:50:18;3.83;;;1.40;;
45254;SDS011;30989;52.078;21.014;2023-04-10T11:52:45;5.03;;;2.45;;
45254;SDS011;30989;52.078;21.014;2023-04-10T11:55:15;5.43;;;1.48;;
45254;SDS011;30989;52.078;21.014;2023-04-10T11:57:41;7.30;;;1.98;;
45254;SDS011;30989;52.078;21.014;2023-04-10T12:00:07;3.90;;;2.15;;
45254;SDS011;30989;52.078;21.014;2023-04-10T12:02:33;9.77;;;2.70;;
45254;SDS011;30989;52.078;21.014;2023-04-10T12:04:58;4.93;;;1.70;;
45254;SDS011;30989;52.078;21.014;2023-04-10T12:07:24;6.90;;;2.10;;
45254;SDS011;30989;52.078;21.014;2023-04-10T12:09:56;3.58;;;1.85;;
45254;SDS011;30989;52.078;21.014;2023-04-10T12:12:33;4.93;;;2.22;;
45254;SDS011;30989;52.078;21.014;2023-04-10T12:15:00;5.45;;;2.00;;
45254;SDS011;30989;52.078;21.014;2023-04-10T12:17:26;4.22;;;2.00;;
45254;SDS011;30989;52.078;21.014;2023-04-10T12:19:52;4.38;;;2.28;;
45254;SDS011;30989;52.078;21.014;2023-04-10T12:22:17;5.95;;;2.45;;
45254;SDS011;30989;52.078;21.014;2023-04-10T12:24:44;4.88;;;2.15;;
45254;SDS011;30989;52.078;21.014;2023-04-10T12:27:21;3.88;;;1.67;;
45254;SDS011;30989;52.078;21.014;2023-04-10T12:29:50;5.22;;;1.83;;
45254;SDS011;30989;52.078;21.014;2023-04-10T12:32:16;5.38;;;1.75;;
45254;SDS011;30989;52.078;21.014;2023-04-10T12:34:49;4.53;;;2.30;;
45254;SDS011;30989;52.078;21.014;2023-04-10T12:37:21;7.57;;;1.77;;
45254;SDS011;30989;52.078;21.014;2023-04-10T12:39:47;5.05;;;1.65;;
45254;SDS011;30989;52.078;21.014;2023-04-10T12:42:13;7.32;;;2.00;;
45254;SDS011;30989;52.078;21.014;2023-04-10T12:47:21;4.47;;;2.00;;
45254;SDS011;30989;52.078;21.014;2023-04-10T12:50:06;7.35;;;2.58;;
45254;SDS011;30989;52.078;21.014;2023-04-10T12:52:35;7.05;;;2.40;;
45254;SDS011;30989;52.078;21.014;2023-04-10T12:57:35;6.55;;;1.95;;
45254;SDS011;30989;52.078;21.014;2023-04-10T13:00:00;3.67;;;1.75;;
45254;SDS011;30989;52.078;21.014;2023-04-10T13:02:27;5.63;;;1.92;;
45254;SDS011;30989;52.078;21.014;2023-04-10T13:04:53;6.20;;;1.88;;
45254;SDS011;30989;52.078;21.014;2023-04-10T13:07:19;5.82;;;2.22;;
45254;SDS011;30989;52.078;21.014;2023-04-10T13:09:44;8.07;;;2.53;;
45254;SDS011;30989;52.078;21.014;2023-04-10T13:12:11;5.85;;;2.58;;
45254;SDS011;30989;52.078;21.014;2023-04-10T13:14:37;8.57;;;4.03;;
45254;SDS011;30989;52.078;21.014;2023-04-10T13:17:02;6.53;;;2.55;;
45254;SDS011;30989;52.078;21.014;2023-04-10T13:19:27;6.20;;;3.15;;
45254;SDS011;30989;52.078;21.014;2023-04-10T13:21:53;7.32;;;2.63;;
45254;SDS011;30989;52.078;21.014;2023-04-10T13:24:18;5.00;;;2.15;;
45254;SDS011;30989;52.078;21.014;2023-04-10T13:26:44;4.25;;;1.67;;
45254;SDS011;30989;52.078;21.014;2023-04-10T13:29:09;3.78;;;1.85;;
45254;SDS011;30989;52.078;21.014;2023-04-10T13:31:35;5.65;;;2.08;;
45254;SDS011;30989;52.078;21.014;2023-04-10T13:34:00;5.43;;;1.95;;
45254;SDS011;30989;52.078;21.014;2023-04-10T13:36:26;5.40;;;1.88;;
45254;SDS011;30989;52.078;21.014;2023-04-10T13:38:51;2.38;;;1.30;;
45254;SDS011;30989;52.078;21.014;2023-04-10T13:41:17;3.95;;;1.90;;
45254;SDS011;30989;52.078;21.014;2023-04-10T13:43:42;2.97;;;1.52;;
45254;SDS011;30989;52.078;21.014;2023-04-10T13:46:07;3.95;;;1.70;;
45254;SDS011;30989;52.078;21.014;2023-04-10T13:48:33;4.38;;;1.70;;
45254;SDS011;30989;52.078;21.014;2023-04-10T13:50:59;3.42;;;1.60;;
45254;SDS011;30989;52.078;21.014;2023-04-10T13:53:25;3.05;;;1.55;;
45254;SDS011;30989;52.078;21.014;2023-04-10T13:55:50;5.55;;;1.42;;
45254;SDS011;30989;52.078;21.014;2023-04-10T13:58:15;7.95;;;4.60;;
45254;SDS011;30989;52.078;21.014;2023-04-10T14:00:41;4.80;;;2.80;;
45254;SDS011;30989;52.078;21.014;2023-04-10T14:03:08;4.78;;;1.75;;
45254;SDS011;30989;52.078;21.014;2023-04-10T14:05:36;5.43;;;1.58;;
45254;SDS011;30989;52.078;21.014;2023-04-10T14:08:03;3.70;;;1.75;;
45254;SDS011;30989;52.078;21.014;2023-04-10T14:10:30;5.65;;;1.83;;
45254;SDS011;30989;52.078;21.014;2023-04-10T14:12:56;6.90;;;1.80;;
45254;SDS011;30989;52.078;21.014;2023-04-10T14:15:21;4.60;;;1.67;;
45254;SDS011;30989;52.078;21.014;2023-04-10T14:17:47;14.35;;;1.80;;
45254;SDS011;30989;52.078;21.014;2023-04-10T14:20:12;6.18;;;2.13;;
45254;SDS011;30989;52.078;21.014;2023-04-10T14:22:38;4.57;;;1.80;;
45254;SDS011;30989;52.078;21.014;2023-04-10T14:25:04;4.45;;;2.28;;
45254;SDS011;30989;52.078;21.014;2023-04-10T14:27:30;6.30;;;2.10;;
45254;SDS011;30989;52.078;21.014;2023-04-10T14:29:56;5.95;;;1.50;;
45254;SDS011;30989;52.078;21.014;2023-04-10T14:32:21;3.97;;;2.30;;
45254;SDS011;30989;52.078;21.014;2023-04-10T14:34:47;6.65;;;1.90;;
45254;SDS011;30989;52.078;21.014;2023-04-10T14:37:13;6.68;;;2.33;;
45254;SDS011;30989;52.078;21.014;2023-04-10T14:39:38;5.45;;;1.95;;
45254;SDS011;30989;52.078;21.014;2023-04-10T14:42:04;4.30;;;2.00;;
45254;SDS011;30989;52.078;21.014;2023-04-10T14:44:29;8.45;;;2.47;;
45254;SDS011;30989;52.078;21.014;2023-04-10T14:46:55;6.05;;;2.45;;
45254;SDS011;30989;52.078;21.014;2023-04-10T14:49:20;6.05;;;1.88;;
45254;SDS011;30989;52.078;21.014;2023-04-10T14:51:46;6.47;;;2.03;;
45254;SDS011;30989;52.078;21.014;2023-04-10T14:54:13;3.70;;;1.80;;
45254;SDS011;30989;52.078;21.014;2023-04-10T14:56:40;5.93;;;1.95;;
45254;SDS011;30989;52.078;21.014;2023-04-10T14:59:06;6.18;;;1.80;;
45254;SDS011;30989;52.078;21.014;2023-04-10T15:01:32;4.97;;;2.28;;
45254;SDS011;30989;52.078;21.014;2023-04-10T15:03:59;4.55;;;1.85;;
45254;SDS011;30989;52.078;21.014;2023-04-10T15:06:25;4.22;;;1.70;;
45254;SDS011;30989;52.078;21.014;2023-04-10T15:08:53;5.03;;;2.20;;
45254;SDS011;30989;52.078;21.014;2023-04-10T15:11:19;3.45;;;1.65;;
45254;SDS011;30989;52.078;21.014;2023-04-10T15:13:45;3.78;;;1.90;;
45254;SDS011;30989;52.078;21.014;2023-04-10T15:16:11;6.18;;;2.15;;
45254;SDS011;30989;52.078;21.014;2023-04-10T15:18:37;4.93;;;1.88;;
45254;SDS011;30989;52.078;21.014;2023-04-10T15:21:02;4.20;;;1.90;;
45254;SDS011;30989;52.078;21.014;2023-04-10T15:23:28;4.53;;;2.20;;
45254;SDS011;30989;52.078;21.014;2023-04-10T15:25:53;4.60;;;1.70;;
45254;SDS011;30989;52.078;21.014;2023-04-10T15:28:19;3.03;;;1.50;;
45254;SDS011;30989;52.078;21.014;2023-04-10T15:30:44;3.97;;;1.92;;
45254;SDS011;30989;52.078;21.014;2023-04-10T15:33:12;5.10;;;2.05;;
45254;SDS011;30989;52.078;21.014;2023-04-10T15:35:38;11.48;;;2.33;;